Time;durP1;ratioP1;P1;durP2;ratioP2;P2;SDS_P1;SDS_P2;PMS_P1;PMS_P2;Temp;Humidity;BMP_temperature;BMP_pressure;BME280_temperature;BME280_humidity;BME280_pressure;Samples;Min_cycle;Max_cycle;Signal;HPM_P1;HPM_P2
2022/09/08 00:00:37;;;;;;;7.25;3.00;;;16.60;99.90;;;;;;5031952;28;20060;-50
2022/09/08 00:03:06;;;;;;;7.00;2.70;;;16.60;99.90;;;;;;5028980;28;20116;-50
2022/09/08 00:05:38;;;;;;;8.52;3.50;;;16.70;99.90;;;;;;5031496;28;20049;-50
2022/09/08 00:08:05;;;;;;;6.80;3.83;;;16.80;99.90;;;;;;5025977;28;20463;-50
2022/09/08 00:10:31;;;;;;;9.85;3.45;;;17.00;99.90;;;;;;5023749;28;20120;-50
2022/09/08 00:12:59;;;;;;;6.68;3.17;;;17.10;99.90;;;;;;5030719;28;20112;-50
2022/09/08 00:15:28;;;;;;;7.93;3.50;;;17.20;99.90;;;;;;5031342;28;20467;-50
2022/09/08 00:17:55;;;;;;;10.70;3.55;;;17.30;99.90;;;;;;5030636;28;20037;-49
2022/09/08 00:20:21;;;;;;;5.40;3.15;;;17.30;99.90;;;;;;5031836;28;20076;-50
2022/09/08 00:22:48;;;;;;;7.47;3.53;;;17.40;99.90;;;;;;5031314;28;20124;-50
2022/09/08 00:25:40;;;;;;;4.43;3.10;;;17.40;99.90;;;;;;5071225;22;20072;-51
2022/09/08 00:28:06;;;;;;;7.40;3.55;;;17.40;99.90;;;;;;5070565;28;20491;-47
2022/09/08 00:30:34;;;;;;;4.82;3.00;;;17.40;99.90;;;;;;5053316;28;20505;-46
2022/09/08 00:33:01;;;;;;;6.05;3.30;;;17.40;99.90;;;;;;5070965;28;20396;-48
2022/09/08 00:35:28;;;;;;;8.52;3.33;;;17.30;99.90;;;;;;5050521;28;20056;-47
2022/09/08 00:37:54;;;;;;;5.03;3.15;;;17.30;99.90;;;;;;5029958;28;20487;-47
2022/09/08 00:40:23;;;;;;;6.55;2.97;;;17.30;99.90;;;;;;5061917;28;20069;-46
2022/09/08 00:43:01;;;;;;;8.48;3.30;;;17.30;99.90;;;;;;5050866;28;20484;-46
2022/09/08 00:45:32;;;;;;;;;;;17.30;99.90;;;;;;5045943;28;20053;-46
2022/09/08 00:48:04;;;;;;;8.60;2.80;;;17.30;99.90;;;;;;5048157;28;20389;-46
2022/09/08 00:50:31;;;;;;;9.32;3.05;;;17.30;99.90;;;;;;5026906;28;20064;-47
2022/09/08 00:53:01;;;;;;;7.00;2.95;;;17.20;99.90;;;;;;5050245;28;20106;-47
2022/09/08 00:55:35;;;;;;;5.55;3.50;;;17.10;99.90;;;;;;5050194;28;20123;-46
2022/09/08 00:58:03;;;;;;;5.32;3.03;;;17.00;99.90;;;;;;5048852;28;20116;-46
2022/09/08 01:00:31;;;;;;;6.60;2.97;;;16.90;99.90;;;;;;5050026;28;20052;-47
2022/09/08 01:02:57;;;;;;;6.43;2.80;;;16.80;99.90;;;;;;5051072;28;20068;-46
2022/09/08 01:05:33;;;;;;;7.55;3.20;;;16.80;99.90;;;;;;5050557;28;20049;-48
2022/09/08 01:13:46;;;;;;;4.85;3.20;;;16.70;99.90;;;;;;5038403;28;20051;-47
2022/09/08 01:16:13;;;;;;;4.45;2.78;;;16.70;99.90;;;;;;5059631;28;20068;-46
2022/09/08 01:18:40;;;;;;;4.25;2.80;;;16.70;99.90;;;;;;5045848;28;20096;-47
2022/09/08 01:21:28;;;;;;;3.67;2.90;;;16.70;99.90;;;;;;5053328;28;20067;-46
2022/09/08 01:24:08;;;;;;;7.20;2.90;;;16.70;99.90;;;;;;5047626;28;20104;-46
2022/09/08 01:26:54;;;;;;;8.48;2.97;;;16.70;99.90;;;;;;5033991;28;20312;-47
2022/09/08 01:29:22;;;;;;;5.40;2.58;;;16.70;99.90;;;;;;5047621;28;20123;-47
2022/09/08 01:31:52;;;;;;;7.03;3.40;;;16.60;99.90;;;;;;5054773;28;20107;-47
2022/09/08 01:34:19;;;;;;;8.00;3.35;;;16.60;99.90;;;;;;5054269;28;20056;-46
2022/09/08 01:36:45;;;;;;;4.50;2.80;;;16.60;99.90;;;;;;5053673;28;20123;-47
2022/09/08 01:39:12;;;;;;;7.13;2.90;;;16.60;99.90;;;;;;5052035;28;20069;-46
2022/09/08 01:41:39;;;;;;;3.97;2.90;;;16.60;99.90;;;;;;5051132;28;20062;-47
2022/09/08 01:44:06;;;;;;;4.78;2.90;;;16.60;99.90;;;;;;5047000;28;20563;-46
2022/09/08 01:46:32;;;;;;;4.43;2.67;;;16.50;99.90;;;;;;5073347;28;20064;-46
2022/09/08 01:48:59;;;;;;;8.00;3.00;;;16.50;99.90;;;;;;5073621;28;20048;-47
2022/09/08 01:51:26;;;;;;;5.68;2.80;;;16.50;99.90;;;;;;5074583;28;20076;-46
2022/09/08 01:53:52;;;;;;;6.03;3.05;;;16.50;99.90;;;;;;5059953;28;20445;-46
2022/09/08 01:56:20;;;;;;;7.00;3.28;;;16.40;99.90;;;;;;5053153;28;20120;-48
2022/09/08 01:58:47;;;;;;;5.00;3.10;;;16.40;99.90;;;;;;5054269;28;20065;-46
2022/09/08 02:01:14;;;;;;;4.70;3.22;;;16.30;99.90;;;;;;5028123;28;20448;-47
2022/09/08 02:03:41;;;;;;;7.25;3.30;;;16.30;99.90;;;;;;5053192;28;20523;-51
2022/09/08 02:06:08;;;;;;;6.60;3.05;;;16.20;99.90;;;;;;5054056;28;20064;-47
2022/09/08 02:08:35;;;;;;;;;;;16.20;99.90;;;;;;5053460;28;20116;-49
2022/09/08 02:11:02;;;;;;;4.78;2.75;;;16.30;99.90;;;;;;5053982;28;19973;-47
2022/09/08 02:13:29;;;;;;;7.20;3.78;;;16.30;99.90;;;;;;5052990;28;20099;-50
2022/09/08 02:16:06;;;;;;;6.82;2.70;;;16.30;99.90;;;;;;5053939;28;20041;-47
2022/09/08 02:18:34;;;;;;;5.40;3.47;;;16.30;99.90;;;;;;5052726;28;20041;-47
2022/09/08 02:21:07;;;;;;;5.85;3.42;;;16.40;99.90;;;;;;5053966;28;20072;-47
2022/09/08 02:23:35;;;;;;;5.70;3.10;;;16.40;99.90;;;;;;5052920;28;20068;-48
2022/09/08 02:26:04;;;;;;;5.63;3.40;;;16.40;99.90;;;;;;5052581;28;20102;-49
2022/09/08 02:28:31;;;;;;;3.70;2.70;;;16.50;99.90;;;;;;5053082;28;20080;-46
2022/09/08 02:31:02;;;;;;;7.93;3.30;;;16.40;99.90;;;;;;5053498;28;20079;-46
2022/09/08 02:33:30;;;;;;;5.75;2.53;;;16.40;99.90;;;;;;5050996;28;20052;-47
2022/09/08 02:35:57;;;;;;;4.55;3.00;;;16.40;99.90;;;;;;5053603;28;20029;-46
2022/09/08 02:38:25;;;;;;;5.80;3.33;;;16.30;99.90;;;;;;5050926;28;20091;-46
2022/09/08 02:40:52;;;;;;;6.93;3.03;;;16.20;99.90;;;;;;5051975;28;20075;-47
2022/09/08 02:43:20;;;;;;;6.25;2.85;;;16.20;99.90;;;;;;5052076;28;20600;-47
2022/09/08 02:45:47;;;;;;;6.45;3.53;;;16.20;99.90;;;;;;5052183;28;20049;-47
2022/09/08 02:48:14;;;;;;;4.90;2.95;;;16.20;99.90;;;;;;5053431;28;20128;-47
2022/09/08 02:50:41;;;;;;;;;;;16.20;99.90;;;;;;5052201;28;20065;-46
2022/09/08 02:53:08;;;;;;;7.20;3.53;;;16.20;99.90;;;;;;5052991;28;19964;-46
2022/09/08 02:55:41;;;;;;;7.32;3.30;;;16.10;99.90;;;;;;5052407;28;20079;-46
2022/09/08 02:58:09;;;;;;;7.20;3.50;;;16.10;99.90;;;;;;5049065;28;20103;-46
2022/09/08 03:00:37;;;;;;;5.05;3.60;;;16.10;99.90;;;;;;5053231;28;20498;-46
2022/09/08 03:03:04;;;;;;;6.63;3.40;;;16.10;99.90;;;;;;5052624;28;20525;-46
2022/09/08 03:05:31;;;;;;;6.38;3.17;;;16.10;99.90;;;;;;5052721;28;20087;-47
2022/09/08 03:07:58;;;;;;;5.28;2.47;;;16.10;99.90;;;;;;5051269;28;20127;-46
2022/09/08 03:10:25;;;;;;;5.65;3.30;;;16.10;99.90;;;;;;5052760;28;20119;-47
2022/09/08 03:12:54;;;;;;;8.30;3.53;;;16.10;99.90;;;;;;5052648;28;20451;-47
2022/09/08 03:15:23;;;;;;;4.78;3.60;;;16.10;99.90;;;;;;5051669;28;20076;-46
2022/09/08 03:17:50;;;;;;;5.20;3.28;;;16.10;99.90;;;;;;5051176;28;20489;-46
2022/09/08 03:20:18;;;;;;;10.90;3.25;;;16.20;99.90;;;;;;5052865;28;20805;-46
2022/09/08 03:22:44;;;;;;;5.40;3.30;;;16.10;99.90;;;;;;5052476;28;20134;-46
2022/09/08 03:25:11;;;;;;;8.05;3.25;;;16.10;99.90;;;;;;5051141;28;20083;-46
2022/09/08 03:27:39;;;;;;;3.92;2.63;;;16.10;99.90;;;;;;5052684;28;20056;-49
2022/09/08 03:30:08;;;;;;;4.47;2.88;;;16.20;99.90;;;;;;5051553;28;20073;-47
2022/09/08 03:32:36;;;;;;;6.72;3.05;;;16.20;99.90;;;;;;5030602;28;20125;-47
2022/09/08 03:35:07;;;;;;;4.72;3.08;;;16.20;99.90;;;;;;5047166;28;20071;-49
2022/09/08 03:37:35;;;;;;;5.28;2.58;;;16.20;99.90;;;;;;5047194;28;20041;-46
2022/09/08 03:40:04;;;;;;;5.53;3.03;;;16.10;99.90;;;;;;5044395;28;20061;-47
2022/09/08 03:42:37;;;;;;;6.28;2.90;;;16.10;99.90;;;;;;5066323;28;20064;-46
2022/09/08 03:45:06;;;;;;;8.45;3.30;;;16.10;99.90;;;;;;5059162;28;20123;-46
2022/09/08 03:47:34;;;;;;;7.80;2.63;;;16.10;99.90;;;;;;5050295;28;20156;-46
2022/09/08 03:50:00;;;;;;;8.77;2.92;;;16.10;99.90;;;;;;5043951;28;20073;-46
2022/09/08 03:52:28;;;;;;;6.07;2.97;;;16.20;99.90;;;;;;5052256;28;20047;-46
2022/09/08 03:54:54;;;;;;;4.10;3.00;;;16.10;99.90;;;;;;5042777;28;20044;-46
2022/09/08 03:57:26;;;;;;;4.88;3.08;;;16.10;99.90;;;;;;5047463;28;20067;-47
2022/09/08 03:59:56;;;;;;;6.45;3.58;;;16.10;99.90;;;;;;5031855;28;20129;-48
2022/09/08 04:02:24;;;;;;;4.80;2.72;;;16.10;99.90;;;;;;5034558;28;20080;-46
2022/09/08 04:04:53;;;;;;;7.82;3.17;;;16.10;99.90;;;;;;5051299;28;20134;-47
2022/09/08 04:07:22;;;;;;;5.45;3.22;;;16.00;99.90;;;;;;5051455;28;20076;-48
2022/09/08 04:09:49;;;;;;;9.25;3.50;;;16.00;99.90;;;;;;5048208;28;20045;-46
2022/09/08 04:12:16;;;;;;;7.90;3.50;;;16.00;99.90;;;;;;5043605;28;20468;-49
2022/09/08 04:14:42;;;;;;;5.22;3.25;;;15.90;99.90;;;;;;5029760;28;20069;-49
2022/09/08 04:17:09;;;;;;;6.28;3.90;;;15.90;99.90;;;;;;5041352;28;20076;-49
2022/09/08 04:19:36;;;;;;;6.97;3.80;;;15.90;99.90;;;;;;5047291;28;20167;-49
2022/09/08 04:22:03;;;;;;;10.18;4.13;;;15.90;99.90;;;;;;5050334;28;20127;-48
2022/09/08 04:24:30;;;;;;;6.60;4.28;;;15.90;99.90;;;;;;5048899;28;20471;-48
2022/09/08 04:26:56;;;;;;;10.27;4.07;;;15.90;99.90;;;;;;5045850;28;20123;-48
2022/09/08 04:29:23;;;;;;;6.43;3.70;;;15.90;99.90;;;;;;5050146;28;20079;-50
2022/09/08 04:31:50;;;;;;;5.65;3.22;;;15.90;99.90;;;;;;5051557;28;20076;-52
2022/09/08 04:34:16;;;;;;;6.47;3.22;;;15.90;99.90;;;;;;5044589;28;20069;-49
2022/09/08 04:36:44;;;;;;;6.18;3.03;;;15.90;99.90;;;;;;5025933;28;20486;-49
2022/09/08 04:39:12;;;;;;;5.53;3.15;;;15.90;99.90;;;;;;5045539;28;20075;-50
2022/09/08 04:41:39;;;;;;;4.82;3.13;;;16.00;99.90;;;;;;5048746;28;20076;-49
2022/09/08 04:44:09;;;;;;;8.90;3.22;;;16.00;99.90;;;;;;5049755;28;20102;-49
2022/09/08 04:46:36;;;;;;;8.95;3.13;;;15.90;99.90;;;;;;5041311;28;20112;-49
2022/09/08 04:49:03;;;;;;;6.63;3.42;;;16.00;99.90;;;;;;5050712;28;20064;-50
2022/09/08 04:51:31;;;;;;;4.32;3.60;;;16.00;99.90;;;;;;5045104;28;20069;-49
2022/09/08 04:53:58;;;;;;;;;;;16.10;99.90;;;;;;5050078;28;20071;-50
2022/09/08 04:56:28;;;;;;;5.30;3.60;;;16.10;99.90;;;;;;5058954;28;19967;-48
2022/09/08 04:58:55;;;;;;;12.00;4.18;;;16.10;99.90;;;;;;5050805;28;20069;-48
2022/09/08 05:01:25;;;;;;;6.47;3.30;;;16.10;99.90;;;;;;5043305;28;20041;-48
2022/09/08 05:03:53;;;;;;;8.50;3.55;;;16.20;99.90;;;;;;5050632;28;20530;-49
2022/09/08 05:06:21;;;;;;;8.77;4.55;;;16.10;99.90;;;;;;5044036;28;20493;-48
2022/09/08 05:08:48;;;;;;;;;;;16.20;99.90;;;;;;5042545;28;20520;-49
2022/09/08 05:11:18;;;;;;;7.27;4.27;;;16.30;99.90;;;;;;5042644;28;20455;-49
2022/09/08 05:13:45;;;;;;;5.93;3.88;;;16.30;99.90;;;;;;5043412;28;20406;-48
2022/09/08 05:16:18;;;;;;;16.65;4.57;;;16.40;99.90;;;;;;5049398;28;20045;-48
2022/09/08 05:18:56;;;;;;;10.82;4.55;;;16.50;99.90;;;;;;5040898;28;20400;-48
2022/09/08 05:21:24;;;;;;;16.48;4.80;;;16.60;99.90;;;;;;5055636;28;20076;-49
2022/09/08 05:23:53;;;;;;;10.57;4.47;;;16.50;99.90;;;;;;5043109;28;20494;-48
2022/09/08 05:26:21;;;;;;;6.22;4.53;;;16.50;99.90;;;;;;5029099;28;20049;-49
2022/09/08 05:28:48;;;;;;;9.07;4.15;;;16.40;99.90;;;;;;5041785;28;20539;-50
2022/09/08 05:31:18;;;;;;;9.73;4.40;;;16.40;99.90;;;;;;5032780;28;20087;-48
2022/09/08 05:33:45;;;;;;;8.07;4.47;;;16.40;99.90;;;;;;5048858;28;20041;-49
2022/09/08 05:36:16;;;;;;;9.48;4.35;;;16.40;99.90;;;;;;5050586;28;20041;-50
2022/09/08 05:38:44;;;;;;;9.80;4.65;;;16.40;99.90;;;;;;5049908;28;20095;-48
2022/09/08 05:41:12;;;;;;;5.57;4.18;;;16.40;99.90;;;;;;5045685;28;20437;-48
2022/09/08 05:43:39;;;;;;;8.07;4.65;;;16.50;99.90;;;;;;5049822;28;20497;-48
2022/09/08 05:46:07;;;;;;;8.30;3.58;;;16.50;99.90;;;;;;5047933;28;20108;-49
2022/09/08 05:48:34;;;;;;;6.65;3.78;;;16.50;99.90;;;;;;5049821;28;20049;-46
2022/09/08 05:51:02;;;;;;;6.85;3.58;;;16.60;99.90;;;;;;5048779;28;20087;-48
2022/09/08 05:53:29;;;;;;;4.68;3.60;;;16.60;99.90;;;;;;5050403;28;20095;-49
2022/09/08 05:56:01;;;;;;;7.30;3.58;;;16.60;99.90;;;;;;5048501;28;20161;-49
2022/09/08 05:58:29;;;;;;;6.03;3.50;;;16.70;99.90;;;;;;5048452;28;20574;-50
2022/09/08 06:00:58;;;;;;;6.35;3.50;;;16.80;99.90;;;;;;5049113;28;20033;-48
2022/09/08 06:03:25;;;;;;;6.43;3.55;;;16.80;99.90;;;;;;5054198;28;20068;-48
2022/09/08 06:05:54;;;;;;;7.90;3.70;;;16.80;99.90;;;;;;5053564;28;20045;-47
2022/09/08 06:08:22;;;;;;;6.25;3.95;;;16.80;99.90;;;;;;5053781;28;20083;-52
2022/09/08 06:10:51;;;;;;;5.43;3.40;;;16.80;99.90;;;;;;5053944;28;20068;-49
2022/09/08 06:13:21;;;;;;;4.88;3.40;;;16.80;99.90;;;;;;5050305;28;20055;-48
2022/09/08 06:15:49;;;;;;;5.93;3.83;;;16.80;99.90;;;;;;5053299;28;20120;-48
2022/09/08 06:18:17;;;;;;;7.53;3.65;;;16.80;99.90;;;;;;5053114;28;20410;-48
2022/09/08 06:20:45;;;;;;;5.60;3.65;;;16.70;99.90;;;;;;5050472;28;20068;-48
2022/09/08 06:23:12;;;;;;;9.00;3.47;;;16.80;99.90;;;;;;5053721;28;20068;-48
2022/09/08 06:29:34;;;;;;;5.22;2.75;;;16.80;99.90;;;;;;5019933;28;20069;-46
2022/09/08 06:32:19;;;;;;;3.92;2.85;;;16.90;99.90;;;;;;5021899;28;20067;-47
2022/09/08 06:34:50;;;;;;;5.82;2.50;;;17.00;99.90;;;;;;5013309;28;20069;-47
2022/09/08 06:37:30;;;;;;;4.13;2.47;;;17.00;99.90;;;;;;5012901;28;20113;-46
2022/09/08 06:40:06;;;;;;;4.88;2.65;;;17.10;99.90;;;;;;5013538;28;20116;-47
2022/09/08 06:42:38;;;;;;;7.00;2.50;;;17.10;99.90;;;;;;5013654;28;20447;-47
2022/09/08 06:45:15;;;;;;;5.85;2.83;;;17.10;99.90;;;;;;5013277;28;20077;-47
2022/09/08 06:47:52;;;;;;;5.47;2.30;;;17.10;99.90;;;;;;5015398;28;20454;-47
2022/09/08 06:50:19;;;;;;;5.20;1.73;;;17.10;99.90;;;;;;5013504;28;20133;-46
2022/09/08 06:52:48;;;;;;;5.00;1.90;;;17.10;99.90;;;;;;5014092;28;20045;-47
2022/09/08 06:55:52;;;;;;;4.60;1.67;;;17.10;99.90;;;;;;5012080;28;20120;-47
2022/09/08 06:58:41;;;;;;;2.25;1.40;;;17.10;99.90;;;;;;5013360;28;20041;-47
2022/09/08 07:01:31;;;;;;;3.80;1.70;;;17.10;99.90;;;;;;5014142;28;20464;-47
2022/09/08 07:04:07;;;;;;;3.78;1.27;;;17.10;99.90;;;;;;5013232;28;20425;-48
2022/09/08 07:06:57;;;;;;;3.10;1.55;;;17.10;99.90;;;;;;5012942;28;20042;-47
2022/09/08 07:09:47;;;;;;;2.58;1.20;;;17.10;99.90;;;;;;5014385;28;20073;-47
2022/09/08 07:12:33;;;;;;;4.68;2.15;;;17.00;99.90;;;;;;5012833;28;20576;-47
2022/09/08 07:15:29;;;;;;;5.35;1.52;;;17.00;99.90;;;;;;5011689;28;20580;-46
2022/09/08 07:18:06;;;;;;;2.35;1.17;;;17.00;99.90;;;;;;4989155;28;20064;-48
2022/09/08 07:20:33;;;;;;;3.00;1.27;;;17.00;99.90;;;;;;5024330;28;20041;-47
2022/09/08 07:23:12;;;;;;;4.35;1.50;;;17.00;99.90;;;;;;5016050;28;20065;-47
2022/09/08 07:26:05;;;;;;;2.28;1.35;;;17.00;99.90;;;;;;5011750;28;20537;-46
2022/09/08 07:28:39;;;;;;;5.20;1.60;;;16.90;99.90;;;;;;5013110;28;20114;-46
2022/09/08 07:31:21;;;;;;;2.53;1.73;;;16.90;99.90;;;;;;5026468;28;20502;-48
2022/09/08 07:33:58;;;;;;;;;;;16.90;99.90;;;;;;5013971;28;20048;-47
2022/09/08 07:36:39;;;;;;;4.00;1.50;;;16.80;99.90;;;;;;5011731;28;19965;-49
2022/09/08 07:39:45;;;;;;;4.63;2.15;;;16.70;99.90;;;;;;5012869;28;20123;-47
2022/09/08 07:42:15;;;;;;;6.00;2.33;;;16.70;99.90;;;;;;4985975;28;20068;-47
2022/09/08 07:44:53;;;;;;;5.57;3.42;;;16.60;99.90;;;;;;5031298;28;20045;-46
2022/09/08 07:47:46;;;;;;;8.05;3.03;;;16.60;99.90;;;;;;5032119;28;20458;-46
2022/09/08 07:50:53;;;;;;;4.32;3.33;;;16.50;99.90;;;;;;5021333;28;20053;-46
2022/09/08 07:53:46;;;;;;;3.50;1.60;;;16.40;99.90;;;;;;5012434;28;20454;-47
2022/09/08 07:56:17;;;;;;;4.78;1.80;;;16.30;99.90;;;;;;5007982;28;20116;-46
2022/09/08 07:58:46;;;;;;;5.95;1.60;;;16.10;99.90;;;;;;5012227;28;20469;-46
2022/09/08 08:01:26;;;;;;;3.60;1.60;;;16.10;99.90;;;;;;5018434;28;20045;-47
2022/09/08 08:04:18;;;;;;;5.15;1.55;;;16.00;99.90;;;;;;5011888;28;20402;-47
2022/09/08 08:06:51;;;;;;;4.13;1.38;;;15.90;99.90;;;;;;5011199;28;20053;-46
2022/09/08 08:09:51;;;;;;;8.25;1.65;;;15.80;99.90;;;;;;5004761;28;20104;-50
2022/09/08 08:12:26;;;;;;;3.67;1.52;;;15.80;99.90;;;;;;5011908;28;20065;-46
2022/09/08 08:15:01;;;;;;;5.57;1.35;;;15.70;99.90;;;;;;5010870;28;20113;-47
2022/09/08 08:18:03;;;;;;;1.33;1.20;;;15.70;99.90;;;;;;5011948;28;20034;-46
2022/09/08 08:20:53;;;;;;;3.65;1.38;;;15.80;99.90;;;;;;5011254;28;20443;-46
2022/09/08 08:23:39;;;;;;;4.30;1.20;;;15.80;99.90;;;;;;5013503;28;20574;-47
2022/09/08 08:26:33;;;;;;;3.55;1.02;;;15.80;99.90;;;;;;5023180;28;20130;-46
2022/09/08 08:29:22;;;;;;;1.42;0.93;;;15.90;99.90;;;;;;5011963;28;20473;-46
2022/09/08 08:32:10;;;;;;;5.03;0.85;;;15.80;99.90;;;;;;5011463;28;20115;-46
2022/09/08 08:35:03;;;;;;;1.23;0.93;;;15.80;99.90;;;;;;5011317;28;20132;-46
2022/09/08 08:37:36;;;;;;;3.00;0.85;;;15.90;99.90;;;;;;5027353;28;20066;-47
2022/09/08 08:40:23;;;;;;;2.30;0.75;;;15.90;99.90;;;;;;5018519;28;20037;-46
2022/09/08 08:43:06;;;;;;;2.65;0.90;;;15.90;99.90;;;;;;5011344;28;20121;-46
2022/09/08 08:45:52;;;;;;;2.70;0.98;;;15.90;99.90;;;;;;5010850;28;20495;-47
2022/09/08 08:48:50;;;;;;;4.20;1.10;;;15.90;99.90;;;;;;5010655;28;20049;-47
2022/09/08 08:51:46;;;;;;;3.22;0.70;;;15.90;99.90;;;;;;5018801;28;20117;-47
2022/09/08 08:54:34;;;;;;;4.70;0.80;;;15.80;99.90;;;;;;5009397;28;20057;-46
2022/09/08 08:57:18;;;;;;;2.22;0.80;;;15.70;99.90;;;;;;5013992;28;20069;-47
2022/09/08 09:00:15;;;;;;;5.13;0.85;;;15.70;99.90;;;;;;5011257;28;20101;-47
2022/09/08 09:03:03;;;;;;;4.10;0.95;;;15.70;99.90;;;;;;5024113;28;20057;-46
2022/09/08 09:05:46;;;;;;;3.10;1.02;;;15.70;99.90;;;;;;5017904;28;20069;-49
2022/09/08 09:08:34;;;;;;;1.75;0.77;;;15.70;99.90;;;;;;5010689;28;20108;-46
2022/09/08 09:11:25;;;;;;;3.88;0.60;;;15.70;99.90;;;;;;5011755;28;20089;-47
2022/09/08 09:14:04;;;;;;;0.80;0.52;;;15.70;99.90;;;;;;5011744;28;20080;-46
2022/09/08 09:16:50;;;;;;;2.25;0.70;;;15.70;99.90;;;;;;5014638;28;20065;-48
2022/09/08 09:19:47;;;;;;;0.82;0.70;;;15.70;99.90;;;;;;5027249;28;20042;-47
2022/09/08 09:22:53;;;;;;;4.82;0.60;;;15.70;99.90;;;;;;5029917;28;20087;-46
2022/09/08 09:25:31;;;;;;;2.78;1.02;;;15.70;99.90;;;;;;5018560;28;20081;-46
2022/09/08 09:28:12;;;;;;;1.45;0.75;;;15.70;99.90;;;;;;5009768;28;20141;-47
2022/09/08 09:31:02;;;;;;;1.48;0.60;;;15.70;99.90;;;;;;5011349;28;20083;-46
2022/09/08 09:33:29;;;;;;;1.33;0.50;;;15.70;99.90;;;;;;5010838;28;20045;-46
2022/09/08 09:36:04;;;;;;;2.80;0.70;;;15.70;99.90;;;;;;5011195;28;20045;-46
2022/09/08 09:38:46;;;;;;;3.75;0.70;;;15.70;99.90;;;;;;5015100;28;20502;-46
2022/09/08 09:41:51;;;;;;;6.28;0.93;;;15.80;99.90;;;;;;5022905;28;20076;-48
2022/09/08 09:44:51;;;;;;;3.60;0.90;;;15.80;99.90;;;;;;5013392;28;20069;-48
2022/09/08 09:47:32;;;;;;;5.35;0.65;;;15.90;99.90;;;;;;5014645;28;20498;-47
2022/09/08 09:50:04;;;;;;;1.85;0.88;;;15.90;99.90;;;;;;5021749;28;20030;-47
2022/09/08 09:53:02;;;;;;;1.40;0.50;;;15.90;99.90;;;;;;5014768;28;20046;-46
2022/09/08 09:56:36;;;;;;;1.08;0.60;;;15.90;99.90;;;;;;5014376;28;20054;-47
2022/09/08 09:59:51;;;;;;;2.53;0.80;;;15.90;99.90;;;;;;5014533;28;20062;-47
2022/09/08 10:02:50;;;;;;;2.05;1.05;;;15.90;99.90;;;;;;5014320;28;20043;-47
2022/09/08 10:05:41;;;;;;;2.88;1.00;;;15.90;99.90;;;;;;5014764;28;20165;-47
2022/09/08 10:08:33;;;;;;;1.55;0.90;;;15.90;99.90;;;;;;5017855;28;20456;-46
2022/09/08 10:11:06;;;;;;;5.05;2.10;;;16.00;99.90;;;;;;5033003;28;20073;-47
2022/09/08 10:13:45;;;;;;;7.35;1.83;;;15.90;99.90;;;;;;5022037;28;20096;-48
2022/09/08 10:16:17;;;;;;;5.53;1.00;;;16.00;99.90;;;;;;5013388;28;20088;-46
2022/09/08 10:18:50;;;;;;;1.63;0.60;;;16.10;99.90;;;;;;5014394;28;20052;-47
2022/09/08 10:21:52;;;;;;;4.95;2.65;;;16.10;99.90;;;;;;5020464;28;20054;-48
2022/09/08 10:24:28;;;;;;;2.47;1.70;;;16.20;99.90;;;;;;5013152;28;20126;-47
2022/09/08 10:27:31;;;;;;;4.13;1.65;;;16.30;99.90;;;;;;5014291;28;20073;-47
2022/09/08 10:30:23;;;;;;;0.73;0.70;;;16.60;99.90;;;;;;5011746;28;20417;-47
2022/09/08 10:33:19;;;;;;;0.55;0.50;;;16.70;99.90;;;;;;5032781;28;20073;-48
2022/09/08 10:35:49;;;;;;;1.15;0.40;;;16.70;99.90;;;;;;5020845;28;20046;-48
2022/09/08 10:38:31;;;;;;;1.45;0.43;;;16.80;99.90;;;;;;5029450;28;20065;-46
2022/09/08 10:41:35;;;;;;;4.07;0.60;;;17.00;99.90;;;;;;5033586;28;20045;-46
2022/09/08 10:44:39;;;;;;;0.50;0.20;;;17.00;99.90;;;;;;5024269;28;20538;-46
2022/09/08 10:47:29;;;;;;;1.08;0.20;;;17.00;99.90;;;;;;5030740;28;20042;-46
2022/09/08 10:50:17;;;;;;;0.40;0.30;;;16.90;99.90;;;;;;5033194;28;20069;-46
2022/09/08 10:52:51;;;;;;;0.40;0.30;;;16.90;99.90;;;;;;5019778;28;20133;-49
2022/09/08 10:55:55;;;;;;;0.35;0.30;;;16.80;99.90;;;;;;5012271;28;20080;-46
2022/09/08 10:58:34;;;;;;;2.65;0.75;;;16.80;99.90;;;;;;5013674;28;20534;-49
2022/09/08 11:01:28;;;;;;;1.95;0.30;;;16.80;99.90;;;;;;5013712;28;20073;-46
2022/09/08 11:04:19;;;;;;;0.30;0.30;;;16.70;99.90;;;;;;5012776;28;20052;-46
2022/09/08 11:07:01;;;;;;;0.85;0.30;;;16.80;99.90;;;;;;5020351;28;20120;-46
2022/09/08 11:09:46;;;;;;;0.85;0.30;;;16.90;99.90;;;;;;5013547;28;20050;-46
2022/09/08 11:12:27;;;;;;;1.10;0.30;;;17.10;99.90;;;;;;5013200;28;20100;-46
2022/09/08 11:15:16;;;;;;;1.58;0.40;;;17.50;99.90;;;;;;5012791;28;20050;-46
2022/09/08 11:17:49;;;;;;;1.67;0.50;;;17.70;99.90;;;;;;5018322;28;20410;-47
2022/09/08 11:20:30;;;;;;;0.30;0.28;;;17.80;99.90;;;;;;5012822;28;20034;-46
2022/09/08 11:23:12;;;;;;;0.45;0.30;;;17.70;99.90;;;;;;5013255;28;20066;-46
2022/09/08 11:26:03;;;;;;;2.13;0.30;;;17.50;99.90;;;;;;5017950;28;20096;-46
2022/09/08 11:28:39;;;;;;;0.30;0.20;;;17.40;99.90;;;;;;5012616;28;20108;-46
2022/09/08 11:31:31;;;;;;;0.32;0.20;;;17.40;99.90;;;;;;5012114;28;20054;-46
2022/09/08 11:34:24;;;;;;;0.20;0.20;;;17.70;99.90;;;;;;5012594;28;20053;-48
2022/09/08 11:36:53;;;;;;;0.55;0.35;;;17.90;99.90;;;;;;4987038;28;20566;-48
2022/09/08 11:39:36;;;;;;;2.70;0.40;;;18.00;99.90;;;;;;5032357;28;20050;-47
2022/09/08 11:42:22;;;;;;;0.55;0.38;;;18.10;99.90;;;;;;5032151;28;20045;-46
2022/09/08 11:45:09;;;;;;;0.93;0.40;;;18.20;99.90;;;;;;5016931;28;20144;-46
2022/09/08 11:47:55;;;;;;;0.22;0.22;;;18.30;99.90;;;;;;5011975;28;20086;-46
2022/09/08 11:50:52;;;;;;;0.30;0.30;;;18.20;99.90;;;;;;5012722;28;20065;-46
2022/09/08 11:53:49;;;;;;;1.48;0.52;;;18.20;99.90;;;;;;5017031;28;20060;-47
2022/09/08 11:57:10;;;;;;;0.70;0.40;;;18.20;99.90;;;;;;5011959;28;20044;-46
2022/09/08 12:00:24;;;;;;;1.20;0.40;;;18.30;99.90;;;;;;5012057;28;20478;-47
2022/09/08 12:03:09;;;;;;;0.50;0.50;;;18.40;99.90;;;;;;4988757;28;20058;-46
2022/09/08 12:06:14;;;;;;;1.98;0.40;;;18.40;99.90;;;;;;5015655;28;20046;-46
2022/09/08 12:09:15;;;;;;;0.63;0.45;;;18.20;99.90;;;;;;5016133;28;20133;-46
2022/09/08 12:12:19;;;;;;;1.63;0.50;;;18.10;99.90;;;;;;5025150;28;20124;-46
2022/09/08 12:15:10;;;;;;;2.67;0.40;;;18.20;99.90;;;;;;5031115;28;20077;-46
2022/09/08 12:17:49;;;;;;;2.60;0.60;;;18.20;99.90;;;;;;5020179;28;20065;-46
2022/09/08 12:20:33;;;;;;;1.30;0.52;;;18.20;99.90;;;;;;5027256;28;20391;-46
2022/09/08 12:23:15;;;;;;;1.48;0.50;;;18.30;99.90;;;;;;5012205;28;20675;-46
2022/09/08 12:27:10;;;;;;;3.65;0.50;;;18.30;99.90;;;;;;5034930;23;20564;-53
2022/09/08 12:30:06;;;;;;;1.02;0.73;;;18.30;99.90;;;;;;5022763;28;20079;-49
2022/09/08 12:32:54;;;;;;;0.93;0.32;;;18.40;99.90;;;;;;5025297;28;20076;-51
2022/09/08 12:35:21;;;;;;;;;;;18.60;99.90;;;;;;5031366;28;20077;-51
2022/09/08 12:38:19;;;;;;;4.50;0.63;;;18.90;99.90;;;;;;5030657;28;19970;-50
2022/09/08 12:41:05;;;;;;;2.25;0.68;;;18.70;99.90;;;;;;5026583;28;20045;-50
2022/09/08 12:43:42;;;;;;;0.88;0.60;;;18.90;99.90;;;;;;5031154;28;20049;-49
2022/09/08 12:46:39;;;;;;;1.77;0.50;;;18.90;99.90;;;;;;5030751;28;20041;-51
2022/09/08 12:49:27;;;;;;;2.53;0.63;;;18.90;99.90;;;;;;5030311;28;20044;-50
2022/09/08 12:52:00;;;;;;;1.95;0.50;;;18.90;99.90;;;;;;5029853;28;20038;-49
2022/09/08 12:55:08;;;;;;;1.98;0.60;;;19.10;99.90;;;;;;5017803;28;20083;-50
2022/09/08 12:57:42;;;;;;;1.95;0.70;;;19.40;99.90;;;;;;5010808;28;20089;-49
2022/09/08 13:00:14;;;;;;;2.40;0.50;;;19.70;99.90;;;;;;5030908;28;20120;-50
2022/09/08 13:02:41;;;;;;;0.50;0.50;;;19.60;99.90;;;;;;5030909;28;20077;-51
2022/09/08 13:05:27;;;;;;;2.85;0.70;;;19.70;99.90;;;;;;5029704;28;20045;-50
2022/09/08 13:08:06;;;;;;;1.23;0.95;;;19.80;99.90;;;;;;5029820;28;20387;-50
2022/09/08 13:10:40;;;;;;;1.38;0.75;;;19.70;99.90;;;;;;5030413;28;20076;-50
2022/09/08 13:13:25;;;;;;;1.17;0.57;;;19.60;99.90;;;;;;5028148;28;20089;-50
2022/09/08 13:15:58;;;;;;;0.65;0.60;;;19.70;99.90;;;;;;5034460;28;20041;-49
2022/09/08 13:19:07;;;;;;;2.22;0.80;;;19.70;99.90;;;;;;5034002;28;20118;-49
2022/09/08 13:21:40;;;;;;;0.77;0.40;;;19.70;99.90;;;;;;5033983;28;20461;-49
2022/09/08 13:24:35;;;;;;;0.45;0.38;;;20.00;99.90;;;;;;5028972;28;20073;-52
2022/09/08 13:27:20;;;;;;;0.73;0.30;;;20.00;99.90;;;;;;5034874;28;20065;-52
2022/09/08 13:30:02;;;;;;;1.42;0.30;;;20.10;99.90;;;;;;5033348;28;20046;-49
2022/09/08 13:32:50;;;;;;;1.65;0.20;;;20.60;99.90;;;;;;5033322;28;20493;-50
2022/09/08 13:35:41;;;;;;;0.60;0.32;;;20.30;99.90;;;;;;5032261;28;20080;-51
2022/09/08 13:38:45;;;;;;;2.38;0.20;;;20.00;99.90;;;;;;5031717;28;20064;-49
2022/09/08 13:41:43;;;;;;;4.28;0.40;;;20.10;99.90;;;;;;5034604;28;20041;-49
2022/09/08 13:44:30;;;;;;;2.25;0.50;;;20.20;99.90;;;;;;5029663;28;20100;-49
2022/09/08 13:47:35;;;;;;;0.85;0.30;;;20.10;99.90;;;;;;5034729;28;20489;-51
2022/09/08 13:50:10;;;;;;;1.25;0.40;;;20.10;99.90;;;;;;5034068;28;20446;-51
2022/09/08 13:53:00;;;;;;;1.30;0.25;;;20.10;99.90;;;;;;5034181;28;20065;-52